sensor_id;sensor_type;location;lat;lon;timestamp;P1;durP1;ratioP1;P2;durP2;ratioP2
9799;SDS011;4939;52.00085300;4.17406100;2023-05-17T00:01:32;19.63;;;3.03;;
9799;SDS011;4939;52.00085300;4.17406100;2023-05-17T00:03:57;17.17;;;3.38;;
9799;SDS011;4939;52.00085300;4.17406100;2023-05-17T00:06:23;13.30;;;2.75;;
9799;SDS011;4939;52.00085300;4.17406100;2023-05-17T00:08:48;17.83;;;2.80;;
9799;SDS011;4939;52.00085300;4.17406100;2023-05-17T00:11:14;13.23;;;3.28;;
9799;SDS011;4939;52.00085300;4.17406100;2023-05-17T00:13:40;12.95;;;2.60;;
9799;SDS011;4939;52.00085300;4.17406100;2023-05-17T00:16:06;13.80;;;3.00;;
9799;SDS011;4939;52.00085300;4.17406100;2023-05-17T00:18:32;15.98;;;3.28;;
9799;SDS011;4939;52.00085300;4.17406100;2023-05-17T00:20:58;12.77;;;3.28;;
9799;SDS011;4939;52.00085300;4.17406100;2023-05-17T00:23:24;16.27;;;3.20;;
9799;SDS011;4939;52.00085300;4.17406100;2023-05-17T00:25:49;10.30;;;2.92;;
9799;SDS011;4939;52.00085300;4.17406100;2023-05-17T00:28:15;13.15;;;2.95;;
9799;SDS011;4939;52.00085300;4.17406100;2023-05-17T00:30:41;16.10;;;3.40;;
9799;SDS011;4939;52.00085300;4.17406100;2023-05-17T00:33:07;16.67;;;3.15;;
9799;SDS011;4939;52.00085300;4.17406100;2023-05-17T00:35:32;12.68;;;2.97;;
9799;SDS011;4939;52.00085300;4.17406100;2023-05-17T00:37:58;14.82;;;3.03;;
9799;SDS011;4939;52.00085300;4.17406100;2023-05-17T00:40:24;12.77;;;3.10;;
9799;SDS011;4939;52.00085300;4.17406100;2023-05-17T00:42:50;17.08;;;3.05;;
9799;SDS011;4939;52.00085300;4.17406100;2023-05-17T00:45:15;15.15;;;3.00;;
9799;SDS011;4939;52.00085300;4.17406100;2023-05-17T00:47:41;16.77;;;2.90;;
9799;SDS011;4939;52.00085300;4.17406100;2023-05-17T00:50:07;17.35;;;2.70;;
9799;SDS011;4939;52.00085300;4.17406100;2023-05-17T00:52:33;14.25;;;2.85;;
9799;SDS011;4939;52.00085300;4.17406100;2023-05-17T00:55:00;13.75;;;3.47;;
9799;SDS011;4939;52.00085300;4.17406100;2023-05-17T00:57:26;14.95;;;3.05;;
9799;SDS011;4939;52.00085300;4.17406100;2023-05-17T00:59:53;7.85;;;2.90;;
9799;SDS011;4939;52.00085300;4.17406100;2023-05-17T01:02:19;13.60;;;2.80;;
9799;SDS011;4939;52.00085300;4.17406100;2023-05-17T01:04:46;16.65;;;3.08;;
9799;SDS011;4939;52.00085300;4.17406100;2023-05-17T01:07:12;9.18;;;2.60;;
9799;SDS011;4939;52.00085300;4.17406100;2023-05-17T01:09:37;13.88;;;3.10;;
9799;SDS011;4939;52.00085300;4.17406100;2023-05-17T01:17:33;13.30;;;2.60;;
9799;SDS011;4939;52.00085300;4.17406100;2023-05-17T01:20:13;14.30;;;2.58;;
9799;SDS011;4939;52.00085300;4.17406100;2023-05-17T01:28:22;12.93;;;2.88;;
9799;SDS011;4939;52.00085300;4.17406100;2023-05-17T01:30:50;9.35;;;2.65;;
9799;SDS011;4939;52.00085300;4.17406100;2023-05-17T01:33:19;7.95;;;2.35;;
9799;SDS011;4939;52.00085300;4.17406100;2023-05-17T01:35:45;12.18;;;2.85;;
9799;SDS011;4939;52.00085300;4.17406100;2023-05-17T01:38:11;13.15;;;2.95;;
9799;SDS011;4939;52.00085300;4.17406100;2023-05-17T01:40:57;13.88;;;3.15;;
9799;SDS011;4939;52.00085300;4.17406100;2023-05-17T01:54:49;10.35;;;2.85;;
9799;SDS011;4939;52.00085300;4.17406100;2023-05-17T01:57:18;12.30;;;2.75;;
9799;SDS011;4939;52.00085300;4.17406100;2023-05-17T01:59:48;14.80;;;2.85;;
9799;SDS011;4939;52.00085300;4.17406100;2023-05-17T02:02:16;14.77;;;2.90;;
9799;SDS011;4939;52.00085300;4.17406100;2023-05-17T02:04:42;17.27;;;2.83;;
9799;SDS011;4939;52.00085300;4.17406100;2023-05-17T02:07:07;11.25;;;2.70;;
9799;SDS011;4939;52.00085300;4.17406100;2023-05-17T02:09:33;16.08;;;2.80;;
9799;SDS011;4939;52.00085300;4.17406100;2023-05-17T02:11:59;13.93;;;2.70;;
9799;SDS011;4939;52.00085300;4.17406100;2023-05-17T02:14:31;14.20;;;3.38;;
9799;SDS011;4939;52.00085300;4.17406100;2023-05-17T02:16:56;11.88;;;2.90;;
9799;SDS011;4939;52.00085300;4.17406100;2023-05-17T02:19:22;12.43;;;2.80;;
9799;SDS011;4939;52.00085300;4.17406100;2023-05-17T02:21:48;14.68;;;3.72;;
9799;SDS011;4939;52.00085300;4.17406100;2023-05-17T02:24:14;14.07;;;2.83;;
9799;SDS011;4939;52.00085300;4.17406100;2023-05-17T02:26:39;12.02;;;2.60;;
9799;SDS011;4939;52.00085300;4.17406100;2023-05-17T02:29:07;13.30;;;2.67;;
9799;SDS011;4939;52.00085300;4.17406100;2023-05-17T02:31:35;13.18;;;2.75;;
9799;SDS011;4939;52.00085300;4.17406100;2023-05-17T02:34:01;12.27;;;2.72;;
9799;SDS011;4939;52.00085300;4.17406100;2023-05-17T02:36:26;15.57;;;2.40;;
9799;SDS011;4939;52.00085300;4.17406100;2023-05-17T02:38:52;10.68;;;2.92;;
9799;SDS011;4939;52.00085300;4.17406100;2023-05-17T02:41:18;9.95;;;2.42;;
9799;SDS011;4939;52.00085300;4.17406100;2023-05-17T02:43:43;12.38;;;2.75;;
9799;SDS011;4939;52.00085300;4.17406100;2023-05-17T02:46:09;13.10;;;2.70;;
9799;SDS011;4939;52.00085300;4.17406100;2023-05-17T02:48:35;10.48;;;2.80;;
9799;SDS011;4939;52.00085300;4.17406100;2023-05-17T02:51:01;12.35;;;2.55;;
9799;SDS011;4939;52.00085300;4.17406100;2023-05-17T02:53:27;12.73;;;2.58;;
9799;SDS011;4939;52.00085300;4.17406100;2023-05-17T02:55:52;9.55;;;2.30;;
9799;SDS011;4939;52.00085300;4.17406100;2023-05-17T02:58:22;9.30;;;2.47;;
9799;SDS011;4939;52.00085300;4.17406100;2023-05-17T03:00:48;11.57;;;2.83;;
9799;SDS011;4939;52.00085300;4.17406100;2023-05-17T03:03:14;10.27;;;2.60;;
9799;SDS011;4939;52.00085300;4.17406100;2023-05-17T03:05:40;14.57;;;3.45;;
9799;SDS011;4939;52.00085300;4.17406100;2023-05-17T03:08:05;9.75;;;2.70;;
9799;SDS011;4939;52.00085300;4.17406100;2023-05-17T03:10:31;10.18;;;2.60;;
9799;SDS011;4939;52.00085300;4.17406100;2023-05-17T03:12:57;12.10;;;2.70;;
9799;SDS011;4939;52.00085300;4.17406100;2023-05-17T03:15:23;13.25;;;3.45;;
9799;SDS011;4939;52.00085300;4.17406100;2023-05-17T03:17:50;13.35;;;4.07;;
9799;SDS011;4939;52.00085300;4.17406100;2023-05-17T03:20:16;13.13;;;3.10;;
9799;SDS011;4939;52.00085300;4.17406100;2023-05-17T03:22:43;15.73;;;2.95;;
9799;SDS011;4939;52.00085300;4.17406100;2023-05-17T03:25:08;18.92;;;3.25;;
9799;SDS011;4939;52.00085300;4.17406100;2023-05-17T03:27:34;10.18;;;2.60;;
9799;SDS011;4939;52.00085300;4.17406100;2023-05-17T03:29:59;5.32;;;2.25;;
9799;SDS011;4939;52.00085300;4.17406100;2023-05-17T03:32:27;9.63;;;2.60;;
9799;SDS011;4939;52.00085300;4.17406100;2023-05-17T03:34:52;11.15;;;3.38;;
9799;SDS011;4939;52.00085300;4.17406100;2023-05-17T03:37:18;13.85;;;2.58;;
9799;SDS011;4939;52.00085300;4.17406100;2023-05-17T03:39:43;7.53;;;2.15;;
9799;SDS011;4939;52.00085300;4.17406100;2023-05-17T03:42:09;13.65;;;2.42;;
9799;SDS011;4939;52.00085300;4.17406100;2023-05-17T03:44:35;10.90;;;2.33;;
9799;SDS011;4939;52.00085300;4.17406100;2023-05-17T03:47:01;11.00;;;2.45;;
9799;SDS011;4939;52.00085300;4.17406100;2023-05-17T03:49:27;11.57;;;2.38;;
9799;SDS011;4939;52.00085300;4.17406100;2023-05-17T03:51:52;10.25;;;2.20;;
9799;SDS011;4939;52.00085300;4.17406100;2023-05-17T03:54:18;14.27;;;2.58;;
9799;SDS011;4939;52.00085300;4.17406100;2023-05-17T03:56:43;11.32;;;2.75;;
9799;SDS011;4939;52.00085300;4.17406100;2023-05-17T03:59:11;11.75;;;2.90;;
9799;SDS011;4939;52.00085300;4.17406100;2023-05-17T04:01:37;8.60;;;2.60;;
9799;SDS011;4939;52.00085300;4.17406100;2023-05-17T04:04:03;8.45;;;2.40;;
9799;SDS011;4939;52.00085300;4.17406100;2023-05-17T04:06:29;8.52;;;1.92;;
9799;SDS011;4939;52.00085300;4.17406100;2023-05-17T04:08:56;9.75;;;2.03;;
9799;SDS011;4939;52.00085300;4.17406100;2023-05-17T04:11:23;9.15;;;2.25;;
9799;SDS011;4939;52.00085300;4.17406100;2023-05-17T04:13:51;9.02;;;2.05;;
9799;SDS011;4939;52.00085300;4.17406100;2023-05-17T04:16:17;9.75;;;2.28;;
9799;SDS011;4939;52.00085300;4.17406100;2023-05-17T04:18:42;14.55;;;2.28;;
9799;SDS011;4939;52.00085300;4.17406100;2023-05-17T04:21:09;9.68;;;2.22;;
9799;SDS011;4939;52.00085300;4.17406100;2023-05-17T04:23:34;9.57;;;2.25;;
9799;SDS011;4939;52.00085300;4.17406100;2023-05-17T04:26:01;13.50;;;2.15;;
9799;SDS011;4939;52.00085300;4.17406100;2023-05-17T04:28:28;10.70;;;2.40;;
9799;SDS011;4939;52.00085300;4.17406100;2023-05-17T04:30:54;12.98;;;2.30;;
9799;SDS011;4939;52.00085300;4.17406100;2023-05-17T04:33:20;12.40;;;2.30;;
9799;SDS011;4939;52.00085300;4.17406100;2023-05-17T04:35:46;10.93;;;2.70;;
9799;SDS011;4939;52.00085300;4.17406100;2023-05-17T04:38:12;9.52;;;2.30;;
9799;SDS011;4939;52.00085300;4.17406100;2023-05-17T04:40:38;10.73;;;2.05;;
9799;SDS011;4939;52.00085300;4.17406100;2023-05-17T04:43:03;9.25;;;2.15;;
9799;SDS011;4939;52.00085300;4.17406100;2023-05-17T04:45:30;11.38;;;2.25;;
9799;SDS011;4939;52.00085300;4.17406100;2023-05-17T04:47:57;6.82;;;2.38;;
9799;SDS011;4939;52.00085300;4.17406100;2023-05-17T04:50:23;11.13;;;1.88;;
9799;SDS011;4939;52.00085300;4.17406100;2023-05-17T04:52:49;8.60;;;1.70;;
9799;SDS011;4939;52.00085300;4.17406100;2023-05-17T04:55:15;6.72;;;1.50;;
9799;SDS011;4939;52.00085300;4.17406100;2023-05-17T04:57:41;10.77;;;2.10;;
9799;SDS011;4939;52.00085300;4.17406100;2023-05-17T05:00:06;14.35;;;2.10;;
9799;SDS011;4939;52.00085300;4.17406100;2023-05-17T05:02:35;13.02;;;1.90;;
9799;SDS011;4939;52.00085300;4.17406100;2023-05-17T05:05:01;9.45;;;1.70;;
9799;SDS011;4939;52.00085300;4.17406100;2023-05-17T05:07:28;13.57;;;2.00;;
9799;SDS011;4939;52.00085300;4.17406100;2023-05-17T05:09:55;8.32;;;1.75;;
9799;SDS011;4939;52.00085300;4.17406100;2023-05-17T05:12:23;11.80;;;1.35;;
9799;SDS011;4939;52.00085300;4.17406100;2023-05-17T05:14:50;11.07;;;1.48;;
9799;SDS011;4939;52.00085300;4.17406100;2023-05-17T05:17:15;13.02;;;1.45;;
9799;SDS011;4939;52.00085300;4.17406100;2023-05-17T05:19:41;13.52;;;1.60;;
9799;SDS011;4939;52.00085300;4.17406100;2023-05-17T05:22:07;9.45;;;1.33;;
9799;SDS011;4939;52.00085300;4.17406100;2023-05-17T05:24:33;10.48;;;1.70;;
9799;SDS011;4939;52.00085300;4.17406100;2023-05-17T05:26:58;14.85;;;2.35;;
9799;SDS011;4939;52.00085300;4.17406100;2023-05-17T05:29:24;9.32;;;1.40;;
9799;SDS011;4939;52.00085300;4.17406100;2023-05-17T05:31:53;13.05;;;1.55;;
9799;SDS011;4939;52.00085300;4.17406100;2023-05-17T05:34:19;9.52;;;1.55;;
9799;SDS011;4939;52.00085300;4.17406100;2023-05-17T05:36:44;15.05;;;1.90;;
9799;SDS011;4939;52.00085300;4.17406100;2023-05-17T05:39:11;16.27;;;1.75;;
9799;SDS011;4939;52.00085300;4.17406100;2023-05-17T05:41:36;9.20;;;1.52;;
9799;SDS011;4939;52.00085300;4.17406100;2023-05-17T05:44:02;10.40;;;1.50;;
9799;SDS011;4939;52.00085300;4.17406100;2023-05-17T05:46:28;10.02;;;1.38;;
9799;SDS011;4939;52.00085300;4.17406100;2023-05-17T05:48:54;14.52;;;1.77;;
9799;SDS011;4939;52.00085300;4.17406100;2023-05-17T05:51:19;13.80;;;1.70;;
9799;SDS011;4939;52.00085300;4.17406100;2023-05-17T05:53:45;14.05;;;1.50;;
9799;SDS011;4939;52.00085300;4.17406100;2023-05-17T05:56:10;11.32;;;1.60;;
9799;SDS011;4939;52.00085300;4.17406100;2023-05-17T05:58:36;10.90;;;1.17;;
9799;SDS011;4939;52.00085300;4.17406100;2023-05-17T06:01:02;7.05;;;1.30;;
9799;SDS011;4939;52.00085300;4.17406100;2023-05-17T06:03:28;14.23;;;2.40;;
9799;SDS011;4939;52.00085300;4.17406100;2023-05-17T06:05:53;9.52;;;1.10;;
9799;SDS011;4939;52.00085300;4.17406100;2023-05-17T06:08:19;11.85;;;1.88;;
9799;SDS011;4939;52.00085300;4.17406100;2023-05-17T06:10:45;13.65;;;1.50;;
9799;SDS011;4939;52.00085300;4.17406100;2023-05-17T06:13:10;12.45;;;1.75;;
9799;SDS011;4939;52.00085300;4.17406100;2023-05-17T06:15:36;8.75;;;1.38;;
9799;SDS011;4939;52.00085300;4.17406100;2023-05-17T06:18:02;13.73;;;1.63;;
9799;SDS011;4939;52.00085300;4.17406100;2023-05-17T06:20:28;10.93;;;1.30;;
9799;SDS011;4939;52.00085300;4.17406100;2023-05-17T06:22:53;12.20;;;1.70;;
9799;SDS011;4939;52.00085300;4.17406100;2023-05-17T06:25:19;6.97;;;1.63;;
9799;SDS011;4939;52.00085300;4.17406100;2023-05-17T06:27:45;10.65;;;1.85;;
9799;SDS011;4939;52.00085300;4.17406100;2023-05-17T06:30:11;10.75;;;1.65;;
9799;SDS011;4939;52.00085300;4.17406100;2023-05-17T06:32:37;15.50;;;1.63;;
9799;SDS011;4939;52.00085300;4.17406100;2023-05-17T06:35:03;11.88;;;1.65;;
9799;SDS011;4939;52.00085300;4.17406100;2023-05-17T06:37:29;13.68;;;1.58;;
9799;SDS011;4939;52.00085300;4.17406100;2023-05-17T06:40:01;15.45;;;1.95;;
9799;SDS011;4939;52.00085300;4.17406100;2023-05-17T06:42:31;11.32;;;1.98;;
9799;SDS011;4939;52.00085300;4.17406100;2023-05-17T06:44:57;9.57;;;1.60;;
9799;SDS011;4939;52.00085300;4.17406100;2023-05-17T06:47:23;12.50;;;1.88;;
9799;SDS011;4939;52.00085300;4.17406100;2023-05-17T06:49:49;9.15;;;1.52;;
9799;SDS011;4939;52.00085300;4.17406100;2023-05-17T06:52:15;12.57;;;1.80;;
9799;SDS011;4939;52.00085300;4.17406100;2023-05-17T06:54:40;10.27;;;2.08;;
9799;SDS011;4939;52.00085300;4.17406100;2023-05-17T06:57:06;14.63;;;1.73;;
9799;SDS011;4939;52.00085300;4.17406100;2023-05-17T06:59:33;9.70;;;1.52;;
9799;SDS011;4939;52.00085300;4.17406100;2023-05-17T07:02:02;7.93;;;1.40;;
9799;SDS011;4939;52.00085300;4.17406100;2023-05-17T07:04:28;14.95;;;1.50;;
9799;SDS011;4939;52.00085300;4.17406100;2023-05-17T07:06:54;12.68;;;1.90;;
9799;SDS011;4939;52.00085300;4.17406100;2023-05-17T07:09:20;9.30;;;1.23;;
9799;SDS011;4939;52.00085300;4.17406100;2023-05-17T07:11:46;10.43;;;1.50;;
9799;SDS011;4939;52.00085300;4.17406100;2023-05-17T07:14:12;10.32;;;1.27;;
9799;SDS011;4939;52.00085300;4.17406100;2023-05-17T07:16:38;9.85;;;1.30;;
9799;SDS011;4939;52.00085300;4.17406100;2023-05-17T07:19:03;10.65;;;2.05;;
9799;SDS011;4939;52.00085300;4.17406100;2023-05-17T07:21:29;11.35;;;1.65;;
9799;SDS011;4939;52.00085300;4.17406100;2023-05-17T07:23:55;10.35;;;1.48;;
9799;SDS011;4939;52.00085300;4.17406100;2023-05-17T07:26:21;10.02;;;1.60;;
9799;SDS011;4939;52.00085300;4.17406100;2023-05-17T07:28:47;9.65;;;1.35;;
9799;SDS011;4939;52.00085300;4.17406100;2023-05-17T07:31:13;10.48;;;1.60;;
9799;SDS011;4939;52.00085300;4.17406100;2023-05-17T07:33:38;6.55;;;1.10;;
9799;SDS011;4939;52.00085300;4.17406100;2023-05-17T07:36:04;8.77;;;1.83;;
9799;SDS011;4939;52.00085300;4.17406100;2023-05-17T07:38:30;10.07;;;1.35;;
9799;SDS011;4939;52.00085300;4.17406100;2023-05-17T07:40:59;12.18;;;1.60;;
9799;SDS011;4939;52.00085300;4.17406100;2023-05-17T07:43:25;11.18;;;1.73;;
9799;SDS011;4939;52.00085300;4.17406100;2023-05-17T07:45:51;11.40;;;1.70;;
9799;SDS011;4939;52.00085300;4.17406100;2023-05-17T07:48:16;11.18;;;2.00;;
9799;SDS011;4939;52.00085300;4.17406100;2023-05-17T07:50:43;8.35;;;1.40;;
9799;SDS011;4939;52.00085300;4.17406100;2023-05-17T07:53:08;15.82;;;2.33;;
9799;SDS011;4939;52.00085300;4.17406100;2023-05-17T07:55:34;5.55;;;1.42;;
9799;SDS011;4939;52.00085300;4.17406100;2023-05-17T07:58:00;8.38;;;1.48;;
9799;SDS011;4939;52.00085300;4.17406100;2023-05-17T08:00:26;7.68;;;1.20;;
9799;SDS011;4939;52.00085300;4.17406100;2023-05-17T08:02:52;9.70;;;1.30;;
9799;SDS011;4939;52.00085300;4.17406100;2023-05-17T08:05:17;9.05;;;1.58;;
9799;SDS011;4939;52.00085300;4.17406100;2023-05-17T08:07:43;9.63;;;1.13;;
9799;SDS011;4939;52.00085300;4.17406100;2023-05-17T08:10:09;9.85;;;1.10;;
9799;SDS011;4939;52.00085300;4.17406100;2023-05-17T08:12:35;4.68;;;1.23;;
9799;SDS011;4939;52.00085300;4.17406100;2023-05-17T08:15:01;12.10;;;1.23;;
9799;SDS011;4939;52.00085300;4.17406100;2023-05-17T08:20:35;7.43;;;1.13;;
9799;SDS011;4939;52.00085300;4.17406100;2023-05-17T08:23:01;6.88;;;1.30;;
9799;SDS011;4939;52.00085300;4.17406100;2023-05-17T08:25:27;8.25;;;1.35;;
9799;SDS011;4939;52.00085300;4.17406100;2023-05-17T08:27:53;11.30;;;1.15;;
9799;SDS011;4939;52.00085300;4.17406100;2023-05-17T08:30:18;11.73;;;1.55;;
9799;SDS011;4939;52.00085300;4.17406100;2023-05-17T08:32:44;4.97;;;0.90;;
9799;SDS011;4939;52.00085300;4.17406100;2023-05-17T08:35:10;5.80;;;0.88;;
9799;SDS011;4939;52.00085300;4.17406100;2023-05-17T08:37:36;7.50;;;1.25;;
9799;SDS011;4939;52.00085300;4.17406100;2023-05-17T08:40:03;7.18;;;1.25;;
9799;SDS011;4939;52.00085300;4.17406100;2023-05-17T08:42:30;5.88;;;0.80;;
9799;SDS011;4939;52.00085300;4.17406100;2023-05-17T08:44:59;6.50;;;1.05;;
9799;SDS011;4939;52.00085300;4.17406100;2023-05-17T08:47:26;7.72;;;1.15;;
9799;SDS011;4939;52.00085300;4.17406100;2023-05-17T08:49:56;7.97;;;1.00;;
9799;SDS011;4939;52.00085300;4.17406100;2023-05-17T08:52:25;8.30;;;1.05;;
9799;SDS011;4939;52.00085300;4.17406100;2023-05-17T08:54:53;7.32;;;1.00;;
9799;SDS011;4939;52.00085300;4.17406100;2023-05-17T08:57:19;7.70;;;1.05;;
9799;SDS011;4939;52.00085300;4.17406100;2023-05-17T08:59:48;7.45;;;1.00;;
9799;SDS011;4939;52.00085300;4.17406100;2023-05-17T09:02:16;8.93;;;1.10;;
9799;SDS011;4939;52.00085300;4.17406100;2023-05-17T09:04:42;6.43;;;0.90;;
9799;SDS011;4939;52.00085300;4.17406100;2023-05-17T09:07:08;5.60;;;0.90;;
9799;SDS011;4939;52.00085300;4.17406100;2023-05-17T09:09:33;8.35;;;1.30;;
9799;SDS011;4939;52.00085300;4.17406100;2023-05-17T09:11:59;4.88;;;0.80;;
9799;SDS011;4939;52.00085300;4.17406100;2023-05-17T09:14:32;2.80;;;0.70;;
9799;SDS011;4939;52.00085300;4.17406100;2023-05-17T09:17:01;5.82;;;0.80;;
9799;SDS011;4939;52.00085300;4.17406100;2023-05-17T09:19:26;7.07;;;0.90;;
9799;SDS011;4939;52.00085300;4.17406100;2023-05-17T09:21:54;4.53;;;1.00;;
9799;SDS011;4939;52.00085300;4.17406100;2023-05-17T09:24:26;5.80;;;1.08;;
9799;SDS011;4939;52.00085300;4.17406100;2023-05-17T09:26:55;8.40;;;1.33;;
9799;SDS011;4939;52.00085300;4.17406100;2023-05-17T09:29:25;8.82;;;1.35;;
9799;SDS011;4939;52.00085300;4.17406100;2023-05-17T09:31:55;9.52;;;1.10;;
9799;SDS011;4939;52.00085300;4.17406100;2023-05-17T09:34:20;4.75;;;1.00;;
9799;SDS011;4939;52.00085300;4.17406100;2023-05-17T09:36:48;7.78;;;1.13;;
9799;SDS011;4939;52.00085300;4.17406100;2023-05-17T09:39:15;7.38;;;1.08;;
9799;SDS011;4939;52.00085300;4.17406100;2023-05-17T09:44:11;5.47;;;0.93;;
9799;SDS011;4939;52.00085300;4.17406100;2023-05-17T09:46:42;6.90;;;0.95;;
9799;SDS011;4939;52.00085300;4.17406100;2023-05-17T09:49:09;5.63;;;1.20;;
9799;SDS011;4939;52.00085300;4.17406100;2023-05-17T09:51:36;7.75;;;1.45;;
9799;SDS011;4939;52.00085300;4.17406100;2023-05-17T09:54:08;5.20;;;1.00;;
9799;SDS011;4939;52.00085300;4.17406100;2023-05-17T09:56:35;8.60;;;1.10;;
9799;SDS011;4939;52.00085300;4.17406100;2023-05-17T09:59:01;9.32;;;1.20;;
9799;SDS011;4939;52.00085300;4.17406100;2023-05-17T10:01:27;7.60;;;1.10;;
9799;SDS011;4939;52.00085300;4.17406100;2023-05-17T10:03:54;7.75;;;1.35;;
9799;SDS011;4939;52.00085300;4.17406100;2023-05-17T10:06:23;9.02;;;0.90;;
9799;SDS011;4939;52.00085300;4.17406100;2023-05-17T10:08:50;6.57;;;1.30;;
9799;SDS011;4939;52.00085300;4.17406100;2023-05-17T10:11:21;8.93;;;1.20;;
9799;SDS011;4939;52.00085300;4.17406100;2023-05-17T10:14:10;10.00;;;1.20;;
9799;SDS011;4939;52.00085300;4.17406100;2023-05-17T10:16:56;7.32;;;1.13;;
9799;SDS011;4939;52.00085300;4.17406100;2023-05-17T10:19:22;8.25;;;1.52;;
9799;SDS011;4939;52.00085300;4.17406100;2023-05-17T10:21:49;5.78;;;0.93;;
9799;SDS011;4939;52.00085300;4.17406100;2023-05-17T10:24:17;6.05;;;1.02;;
9799;SDS011;4939;52.00085300;4.17406100;2023-05-17T10:26:45;4.38;;;1.00;;
9799;SDS011;4939;52.00085300;4.17406100;2023-05-17T10:29:15;5.82;;;1.00;;
9799;SDS011;4939;52.00085300;4.17406100;2023-05-17T10:31:44;6.60;;;1.20;;
9799;SDS011;4939;52.00085300;4.17406100;2023-05-17T10:34:11;4.53;;;0.93;;
9799;SDS011;4939;52.00085300;4.17406100;2023-05-17T10:36:39;5.85;;;0.82;;
9799;SDS011;4939;52.00085300;4.17406100;2023-05-17T10:39:07;6.70;;;0.90;;
9799;SDS011;4939;52.00085300;4.17406100;2023-05-17T10:41:34;8.05;;;1.20;;
9799;SDS011;4939;52.00085300;4.17406100;2023-05-17T10:44:06;4.40;;;0.95;;
9799;SDS011;4939;52.00085300;4.17406100;2023-05-17T10:46:34;4.53;;;0.82;;
9799;SDS011;4939;52.00085300;4.17406100;2023-05-17T10:49:01;5.38;;;0.73;;
9799;SDS011;4939;52.00085300;4.17406100;2023-05-17T10:51:33;6.15;;;0.75;;
9799;SDS011;4939;52.00085300;4.17406100;2023-05-17T10:56:30;6.43;;;1.02;;
9799;SDS011;4939;52.00085300;4.17406100;2023-05-17T11:06:53;5.22;;;1.00;;
9799;SDS011;4939;52.00085300;4.17406100;2023-05-17T11:09:39;4.90;;;0.90;;
9799;SDS011;4939;52.00085300;4.17406100;2023-05-17T11:12:05;9.13;;;1.23;;
9799;SDS011;4939;52.00085300;4.17406100;2023-05-17T11:17:17;5.80;;;0.80;;
9799;SDS011;4939;52.00085300;4.17406100;2023-05-17T11:19:54;6.85;;;1.23;;
9799;SDS011;4939;52.00085300;4.17406100;2023-05-17T11:22:26;6.90;;;1.05;;
9799;SDS011;4939;52.00085300;4.17406100;2023-05-17T11:24:52;7.72;;;1.20;;
9799;SDS011;4939;52.00085300;4.17406100;2023-05-17T11:27:21;11.25;;;1.60;;
9799;SDS011;4939;52.00085300;4.17406100;2023-05-17T11:29:55;7.65;;;1.00;;
9799;SDS011;4939;52.00085300;4.17406100;2023-05-17T11:32:27;7.63;;;1.25;;
9799;SDS011;4939;52.00085300;4.17406100;2023-05-17T11:34:54;5.47;;;1.10;;
9799;SDS011;4939;52.00085300;4.17406100;2023-05-17T11:37:24;5.95;;;1.00;;
9799;SDS011;4939;52.00085300;4.17406100;2023-05-17T11:40:01;6.28;;;1.20;;
9799;SDS011;4939;52.00085300;4.17406100;2023-05-17T11:42:32;7.53;;;1.20;;
9799;SDS011;4939;52.00085300;4.17406100;2023-05-17T11:44:59;4.40;;;0.77;;
9799;SDS011;4939;52.00085300;4.17406100;2023-05-17T11:47:25;4.43;;;1.00;;
9799;SDS011;4939;52.00085300;4.17406100;2023-05-17T11:49:55;9.30;;;1.40;;
9799;SDS011;4939;52.00085300;4.17406100;2023-05-17T11:52:29;6.80;;;1.20;;
9799;SDS011;4939;52.00085300;4.17406100;2023-05-17T11:54:56;7.68;;;1.10;;
9799;SDS011;4939;52.00085300;4.17406100;2023-05-17T11:57:29;4.03;;;1.00;;
9799;SDS011;4939;52.00085300;4.17406100;2023-05-17T12:02:28;6.55;;;1.02;;
9799;SDS011;4939;52.00085300;4.17406100;2023-05-17T12:04:54;8.25;;;1.00;;
9799;SDS011;4939;52.00085300;4.17406100;2023-05-17T12:07:20;11.00;;;1.15;;
9799;SDS011;4939;52.00085300;4.17406100;2023-05-17T12:09:47;8.45;;;1.13;;
9799;SDS011;4939;52.00085300;4.17406100;2023-05-17T12:12:13;8.60;;;1.20;;
9799;SDS011;4939;52.00085300;4.17406100;2023-05-17T12:14:41;4.05;;;1.25;;
9799;SDS011;4939;52.00085300;4.17406100;2023-05-17T12:17:08;5.53;;;0.90;;
9799;SDS011;4939;52.00085300;4.17406100;2023-05-17T12:19:40;2.88;;;1.00;;
9799;SDS011;4939;52.00085300;4.17406100;2023-05-17T12:22:09;10.07;;;1.10;;
9799;SDS011;4939;52.00085300;4.17406100;2023-05-17T12:24:41;6.93;;;1.10;;
9799;SDS011;4939;52.00085300;4.17406100;2023-05-17T12:27:08;6.57;;;1.27;;
9799;SDS011;4939;52.00085300;4.17406100;2023-05-17T12:29:34;6.07;;;1.08;;
9799;SDS011;4939;52.00085300;4.17406100;2023-05-17T12:32:00;4.35;;;0.90;;
9799;SDS011;4939;52.00085300;4.17406100;2023-05-17T12:34:26;6.82;;;1.10;;
9799;SDS011;4939;52.00085300;4.17406100;2023-05-17T12:36:53;6.72;;;1.52;;
9799;SDS011;4939;52.00085300;4.17406100;2023-05-17T12:39:19;5.75;;;0.95;;
9799;SDS011;4939;52.00085300;4.17406100;2023-05-17T12:41:48;12.85;;;1.30;;
9799;SDS011;4939;52.00085300;4.17406100;2023-05-17T12:44:15;7.03;;;1.10;;
9799;SDS011;4939;52.00085300;4.17406100;2023-05-17T12:46:41;8.38;;;1.05;;
9799;SDS011;4939;52.00085300;4.17406100;2023-05-17T12:49:08;4.32;;;1.25;;
9799;SDS011;4939;52.00085300;4.17406100;2023-05-17T12:51:45;4.28;;;1.08;;
9799;SDS011;4939;52.00085300;4.17406100;2023-05-17T12:54:24;8.93;;;1.40;;
9799;SDS011;4939;52.00085300;4.17406100;2023-05-17T12:56:51;7.40;;;1.58;;
9799;SDS011;4939;52.00085300;4.17406100;2023-05-17T12:59:17;4.50;;;1.08;;
9799;SDS011;4939;52.00085300;4.17406100;2023-05-17T13:04:17;6.60;;;1.45;;
9799;SDS011;4939;52.00085300;4.17406100;2023-05-17T13:06:45;8.25;;;1.58;;
9799;SDS011;4939;52.00085300;4.17406100;2023-05-17T13:09:15;6.38;;;1.00;;
9799;SDS011;4939;52.00085300;4.17406100;2023-05-17T13:11:42;5.65;;;1.52;;
9799;SDS011;4939;52.00085300;4.17406100;2023-05-17T13:14:13;7.53;;;1.10;;
9799;SDS011;4939;52.00085300;4.17406100;2023-05-17T13:16:39;3.40;;;0.80;;
9799;SDS011;4939;52.00085300;4.17406100;2023-05-17T13:19:14;5.55;;;1.08;;
9799;SDS011;4939;52.00085300;4.17406100;2023-05-17T13:21:39;4.63;;;1.10;;
9799;SDS011;4939;52.00085300;4.17406100;2023-05-17T13:24:07;6.10;;;1.23;;
9799;SDS011;4939;52.00085300;4.17406100;2023-05-17T13:26:34;7.18;;;1.00;;
9799;SDS011;4939;52.00085300;4.17406100;2023-05-17T13:28:59;5.43;;;1.10;;
9799;SDS011;4939;52.00085300;4.17406100;2023-05-17T13:31:25;6.65;;;1.20;;
9799;SDS011;4939;52.00085300;4.17406100;2023-05-17T13:33:50;5.13;;;0.95;;
9799;SDS011;4939;52.00085300;4.17406100;2023-05-17T13:36:16;5.95;;;1.15;;
9799;SDS011;4939;52.00085300;4.17406100;2023-05-17T13:38:42;5.28;;;1.30;;
9799;SDS011;4939;52.00085300;4.17406100;2023-05-17T13:41:08;5.43;;;1.17;;
9799;SDS011;4939;52.00085300;4.17406100;2023-05-17T13:43:34;9.55;;;1.10;;
9799;SDS011;4939;52.00085300;4.17406100;2023-05-17T13:46:01;5.97;;;1.10;;
9799;SDS011;4939;52.00085300;4.17406100;2023-05-17T13:48:27;4.80;;;0.90;;
9799;SDS011;4939;52.00085300;4.17406100;2023-05-17T13:50:53;5.15;;;1.15;;
9799;SDS011;4939;52.00085300;4.17406100;2023-05-17T13:53:19;5.93;;;1.10;;